Time;durP1;ratioP1;P1;durP2;ratioP2;P2;SDS_P1;SDS_P2;PMS_P1;PMS_P2;Temp;Humidity;BMP_temperature;BMP_pressure;BME280_temperature;BME280_humidity;BME280_pressure;Samples;Min_cycle;Max_cycle;Signal;HPM_P1;HPM_P2
2022/06/01 00:02:37;;;;;;;5.27;4.77;;;;;;;;;;10456882;28;20037;-80
2022/06/01 00:07:38;;;;;;;5.90;5.10;;;;;;;;;;10492045;28;20127;-81
2022/06/01 00:12:40;;;;;;;6.07;5.50;;;;;;;;;;10473661;28;20048;-79
2022/06/01 00:17:40;;;;;;;5.25;4.72;;;;;;;;;;10475945;28;20048;-79
2022/06/01 00:22:41;;;;;;;5.15;4.65;;;;;;;;;;10475715;28;20120;-79
2022/06/01 00:27:41;;;;;;;5.43;4.88;;;;;;;;;;10499295;28;20113;-79
2022/06/01 00:32:42;;;;;;;5.93;5.33;;;;;;;;;;10512031;28;20048;-80
2022/06/01 00:37:42;;;;;;;5.85;5.30;;;;;;;;;;10472931;28;20052;-78
2022/06/01 00:42:45;;;;;;;6.50;5.47;;;;;;;;;;10476385;28;20037;-76
2022/06/01 00:47:46;;;;;;;5.50;5.05;;;;;;;;;;10494989;28;20052;-76
2022/06/01 00:52:50;;;;;;;6.30;5.70;;;;;;;;;;10488519;28;20151;-76
2022/06/01 00:57:53;;;;;;;7.90;6.50;;;;;;;;;;10473231;28;20059;-77
2022/06/01 01:02:56;;;;;;;7.63;6.40;;;;;;;;;;10477958;28;20049;-78
2022/06/01 01:07:58;;;;;;;6.55;5.93;;;;;;;;;;10477225;28;20044;-77
2022/06/01 01:13:01;;;;;;;7.25;6.20;;;;;;;;;;10454604;28;20032;-78
2022/06/01 01:18:38;;;;;;;6.70;6.10;;;;;;;;;;10480937;28;20024;-79
2022/06/01 01:23:40;;;;;;;7.53;6.78;;;;;;;;;;10454919;28;20200;-79
2022/06/01 01:28:42;;;;;;;6.90;6.30;;;;;;;;;;10477969;28;20048;-81
2022/06/01 01:33:48;;;;;;;7.35;6.65;;;;;;;;;;10486840;28;20055;-80
2022/06/01 01:38:51;;;;;;;7.05;6.35;;;;;;;;;;10470259;28;20048;-79
2022/06/01 01:44:10;;;;;;;7.78;6.95;;;;;;;;;;10451452;28;20048;-80
2022/06/01 01:49:10;;;;;;;6.75;6.15;;;;;;;;;;10464689;28;20098;-80
2022/06/01 01:54:29;;;;;;;8.03;7.13;;;;;;;;;;10453586;28;20056;-81
2022/06/01 02:00:08;;;;;;;8.45;7.65;;;;;;;;;;10454664;28;20781;-79
2022/06/01 02:15:55;;;;;;;8.60;7.60;;;;;;;;;;10478763;28;20424;-78
2022/06/01 02:20:59;;;;;;;8.98;8.07;;;;;;;;;;10462163;28;20049;-76
2022/06/01 02:26:00;;;;;;;8.15;7.35;;;;;;;;;;10465939;28;20037;-77
2022/06/01 02:31:02;;;;;;;;;;;;;;;;;;10497300;28;20381;-78
2022/06/01 02:36:04;;;;;;;9.55;7.88;;;;;;;;;;10485996;28;19912;-79
2022/06/01 02:41:05;;;;;;;9.57;8.57;;;;;;;;;;10457759;28;20048;-79
2022/06/01 02:46:05;;;;;;;8.52;7.53;;;;;;;;;;10459763;28;20177;-78
2022/06/01 02:51:07;;;;;;;9.13;8.23;;;;;;;;;;10445549;28;20090;-77
2022/06/01 02:56:07;;;;;;;7.95;7.03;;;;;;;;;;10497079;28;20048;-79
2022/06/01 03:01:08;;;;;;;10.30;9.23;;;;;;;;;;10462304;28;20044;-77
2022/06/01 03:06:08;;;;;;;9.65;8.75;;;;;;;;;;10458053;28;20059;-80
2022/06/01 03:11:09;;;;;;;9.88;8.88;;;;;;;;;;10432346;28;20121;-78
2022/06/01 03:16:10;;;;;;;10.55;8.68;;;;;;;;;;10471939;28;20056;-79
2022/06/01 03:21:10;;;;;;;9.18;8.27;;;;;;;;;;10463342;28;20124;-76
2022/06/01 03:26:12;;;;;;;9.38;8.45;;;;;;;;;;10490942;28;20064;-76
2022/06/01 03:31:13;;;;;;;8.52;7.72;;;;;;;;;;10480722;28;20049;-78
2022/06/01 03:36:13;;;;;;;9.82;8.32;;;;;;;;;;10470026;28;20126;-78
2022/06/01 03:41:13;;;;;;;9.57;8.67;;;;;;;;;;10448112;28;20118;-77
2022/06/01 03:46:13;;;;;;;9.40;7.75;;;;;;;;;;10448107;28;20091;-78
2022/06/01 03:51:14;;;;;;;9.37;8.43;;;;;;;;;;10470392;28;20048;-78
2022/06/01 03:56:14;;;;;;;10.00;9.00;;;;;;;;;;10458724;28;20043;-78
2022/06/01 04:01:15;;;;;;;11.88;9.60;;;;;;;;;;10436383;28;20275;-78
2022/06/01 04:06:15;;;;;;;11.60;10.40;;;;;;;;;;10464968;28;20060;-79
2022/06/01 04:11:17;;;;;;;9.57;8.65;;;;;;;;;;10445511;28;20056;-78
2022/06/01 04:16:19;;;;;;;11.83;8.73;;;;;;;;;;10474794;28;20052;-77
2022/06/01 04:21:22;;;;;;;10.98;9.82;;;;;;;;;;10504055;28;20156;-78
2022/06/01 04:26:23;;;;;;;9.70;8.80;;;;;;;;;;10496257;28;20049;-79
2022/06/01 04:31:24;;;;;;;12.07;10.87;;;;;;;;;;10489565;28;20056;-79
2022/06/01 04:36:24;;;;;;;12.63;11.32;;;;;;;;;;10460427;28;20060;-78
2022/06/01 04:41:25;;;;;;;11.80;10.60;;;;;;;;;;10471748;28;20040;-78
2022/06/01 04:46:25;;;;;;;12.77;11.32;;;;;;;;;;10420603;28;20068;-79
2022/06/01 04:51:26;;;;;;;13.33;11.80;;;;;;;;;;10433474;28;20051;-78
2022/06/01 04:56:27;;;;;;;12.18;10.93;;;;;;;;;;10455090;28;20330;-74
2022/06/01 05:01:27;;;;;;;14.38;11.50;;;;;;;;;;10464873;28;20427;-77
2022/06/01 05:06:28;;;;;;;13.15;11.25;;;;;;;;;;10463509;28;20075;-79
2022/06/01 05:11:28;;;;;;;15.88;12.00;;;;;;;;;;10448051;28;20037;-77
2022/06/01 05:16:28;;;;;;;17.03;14.20;;;;;;;;;;10456025;28;20534;-77
2022/06/01 05:21:29;;;;;;;14.55;12.68;;;;;;;;;;10450351;28;20037;-81
2022/06/01 05:26:29;;;;;;;14.40;12.68;;;;;;;;;;10476336;28;20049;-77
2022/06/01 05:31:30;;;;;;;14.70;12.48;;;;;;;;;;10442312;28;20037;-77
2022/06/01 05:36:31;;;;;;;12.27;10.77;;;;;;;;;;10439428;28;20111;-76
2022/06/01 05:41:31;;;;;;;14.25;12.75;;;;;;;;;;10464017;28;20043;-75
2022/06/01 05:46:35;;;;;;;16.37;13.47;;;;;;;;;;10472115;28;20140;-81
2022/06/01 05:51:35;;;;;;;13.95;12.55;;;;;;;;;;10476753;28;20098;-78
2022/06/01 05:56:36;;;;;;;13.95;12.30;;;;;;;;;;10458890;28;20056;-80
2022/06/01 06:01:37;;;;;;;12.15;10.95;;;;;;;;;;10471565;28;20040;-80
2022/06/01 06:06:39;;;;;;;11.02;10.02;;;;;;;;;;10433945;28;20654;-79
2022/06/01 06:11:40;;;;;;;9.43;8.45;;;;;;;;;;10475421;28;20132;-77
2022/06/01 06:16:42;;;;;;;9.60;8.70;;;;;;;;;;10487036;28;20160;-77
2022/06/01 06:21:44;;;;;;;11.32;9.55;;;;;;;;;;10462694;28;20135;-77
2022/06/01 06:26:46;;;;;;;9.25;8.07;;;;;;;;;;10475744;28;20045;-84
2022/06/01 06:31:46;;;;;;;7.80;7.10;;;;;;;;;;10465883;28;20065;-79
2022/06/01 06:36:47;;;;;;;8.85;7.95;;;;;;;;;;10472034;28;20168;-80
2022/06/01 06:41:48;;;;;;;8.50;7.63;;;;;;;;;;10454360;28;20538;-78
2022/06/01 06:46:50;;;;;;;9.98;7.10;;;;;;;;;;10483286;28;20083;-80
2022/06/01 06:51:51;;;;;;;6.28;5.78;;;;;;;;;;10468480;28;20052;-78
2022/06/01 06:56:52;;;;;;;8.63;7.33;;;;;;;;;;10461126;28;20036;-80
2022/06/01 07:01:53;;;;;;;7.63;6.25;;;;;;;;;;10459142;28;20071;-78
2022/06/01 07:06:54;;;;;;;9.43;6.60;;;;;;;;;;10466341;28;20178;-80
2022/06/01 07:11:54;;;;;;;6.80;6.10;;;;;;;;;;10471162;28;20039;-76
2022/06/01 07:16:58;;;;;;;7.70;6.27;;;;;;;;;;10483154;28;20399;-79
2022/06/01 07:21:58;;;;;;;6.22;5.63;;;;;;;;;;10481522;28;20448;-78
2022/06/01 07:26:58;;;;;;;6.20;5.60;;;;;;;;;;10465856;28;20045;-78
2022/06/01 07:31:59;;;;;;;6.72;5.03;;;;;;;;;;10469942;28;20389;-77
2022/06/01 07:43:05;;;;;;;7.10;5.97;;;;;;;;;;10420347;28;20842;-77
2022/06/01 07:47:38;;;;;;;7.80;5.65;;;;;;;;;;10446797;28;20048;-77
2022/06/01 07:52:38;;;;;;;7.10;4.97;;;;;;;;;;10488294;28;20075;-80
2022/06/01 07:57:39;;;;;;;11.93;8.20;;;;;;;;;;10465115;28;20118;-80
2022/06/01 08:02:39;;;;;;;5.97;5.37;;;;;;;;;;10465953;28;20274;-79
2022/06/01 08:07:40;;;;;;;12.45;7.70;;;;;;;;;;10478107;28;20751;-79
2022/06/01 08:18:03;;;;;;;3.70;3.40;;;;;;;;;;10450941;28;20064;-80
2022/06/01 08:23:04;;;;;;;9.30;6.35;;;;;;;;;;10458985;28;20309;-79
2022/06/01 08:28:08;;;;;;;3.30;2.78;;;;;;;;;;10475879;28;20674;-79
2022/06/01 08:33:08;;;;;;;3.10;2.80;;;;;;;;;;10473629;28;20051;-79
2022/06/01 08:38:09;;;;;;;5.85;4.10;;;;;;;;;;10471974;28;20136;-80
2022/06/01 08:43:11;;;;;;;4.55;3.03;;;;;;;;;;10481712;28;20791;-82
2022/06/01 08:48:16;;;;;;;3.80;2.55;;;;;;;;;;10480904;28;20051;-79
2022/06/01 08:53:17;;;;;;;3.65;2.67;;;;;;;;;;10478017;28;20376;-74
2022/06/01 08:58:23;;;;;;;3.38;2.97;;;;;;;;;;10474184;28;20044;-74
2022/06/01 09:03:29;;;;;;;3.78;2.70;;;;;;;;;;10451152;28;22320;-73
2022/06/01 09:08:50;;;;;;;3.47;2.50;;;;;;;;;;10446006;28;20049;-74
2022/06/01 09:13:50;;;;;;;3.58;2.78;;;;;;;;;;10486441;28;20140;-72
2022/06/01 09:18:51;;;;;;;3.75;2.17;;;;;;;;;;10477906;28;20496;-74
2022/06/01 09:23:52;;;;;;;3.25;2.20;;;;;;;;;;10455533;28;20040;-71
2022/06/01 09:28:54;;;;;;;9.67;6.60;;;;;;;;;;10468010;28;20051;-73
2022/06/01 09:34:14;;;;;;;4.30;2.85;;;;;;;;;;10440317;28;20122;-73
2022/06/01 09:39:18;;;;;;;7.55;4.68;;;;;;;;;;10471879;28;20110;-73
2022/06/01 09:44:30;;;;;;;4.57;2.53;;;;;;;;;;10463682;28;20759;-74
2022/06/01 09:49:32;;;;;;;3.78;2.97;;;;;;;;;;10455971;28;20068;-73
2022/06/01 09:54:34;;;;;;;4.43;2.60;;;;;;;;;;10453535;28;20102;-75
2022/06/01 10:10:25;;;;;;;4.55;2.10;;;;;;;;;;10462653;28;20085;-75
2022/06/01 10:15:35;;;;;;;3.10;2.40;;;;;;;;;;10469733;28;20120;-74
2022/06/01 10:20:38;;;;;;;2.70;1.80;;;;;;;;;;10466790;28;20052;-74
2022/06/01 10:25:41;;;;;;;6.80;4.07;;;;;;;;;;10469798;28;20098;-75
2022/06/01 10:30:49;;;;;;;2.67;1.60;;;;;;;;;;10464290;28;20041;-72
2022/06/01 10:35:56;;;;;;;4.47;2.25;;;;;;;;;;10470034;28;20376;-73
2022/06/01 10:41:15;;;;;;;2.13;1.75;;;;;;;;;;10447867;28;20044;-73
2022/06/01 10:46:15;;;;;;;3.50;1.40;;;;;;;;;;10458159;28;20049;-74
2022/06/01 10:51:22;;;;;;;1.83;1.40;;;;;;;;;;10462605;28;20036;-73
2022/06/01 10:56:22;;;;;;;4.22;2.15;;;;;;;;;;10470735;28;20129;-73
2022/06/01 11:01:55;;;;;;;4.33;2.93;;;;;;;;;;10462254;28;20148;-73
2022/06/01 11:07:05;;;;;;;3.13;2.60;;;;;;;;;;10419533;28;20049;-75
2022/06/01 11:12:18;;;;;;;2.40;1.48;;;;;;;;;;10450079;28;20041;-74
2022/06/01 11:17:33;;;;;;;1.92;1.48;;;;;;;;;;10446940;28;20505;-73
2022/06/01 11:22:44;;;;;;;2.67;1.40;;;;;;;;;;10463572;28;20124;-74
2022/06/01 11:27:44;;;;;;;1.95;1.40;;;;;;;;;;10476252;28;20112;-75
2022/06/01 11:32:49;;;;;;;1.67;1.40;;;;;;;;;;10480145;28;20123;-74
2022/06/01 11:37:54;;;;;;;2.00;1.77;;;;;;;;;;10460289;28;20395;-75
2022/06/01 11:42:56;;;;;;;1.80;1.63;;;;;;;;;;10447005;28;20148;-75
2022/06/01 11:48:05;;;;;;;2.88;2.17;;;;;;;;;;10458095;28;20068;-74
2022/06/01 11:53:09;;;;;;;1.63;1.52;;;;;;;;;;10461835;28;20815;-79
2022/06/01 11:58:13;;;;;;;2.35;1.50;;;;;;;;;;10450189;28;20097;-75
2022/06/01 12:03:25;;;;;;;1.45;1.35;;;;;;;;;;10459652;28;20478;-74
2022/06/01 12:08:32;;;;;;;2.08;1.40;;;;;;;;;;10449788;28;20559;-74
2022/06/01 12:13:35;;;;;;;3.47;1.90;;;;;;;;;;10466880;28;20095;-79
2022/06/01 12:18:35;;;;;;;9.10;5.88;;;;;;;;;;10458780;28;20036;-79
2022/06/01 12:29:12;;;;;;;3.75;1.70;;;;;;;;;;10453616;28;20399;-78
2022/06/01 12:34:18;;;;;;;1.90;1.40;;;;;;;;;;10486484;28;20074;-80
2022/06/01 12:39:21;;;;;;;2.72;1.45;;;;;;;;;;10486524;28;20067;-75
2022/06/01 12:44:22;;;;;;;2.42;1.42;;;;;;;;;;10454405;28;20127;-75
2022/06/01 12:49:40;;;;;;;1.67;1.50;;;;;;;;;;10455584;28;20135;-74
2022/06/01 12:54:49;;;;;;;1.67;1.58;;;;;;;;;;10476878;28;20114;-76
2022/06/01 12:59:55;;;;;;;4.55;3.72;;;;;;;;;;10479217;28;20049;-76
2022/06/01 13:04:56;;;;;;;1.80;1.70;;;;;;;;;;10460593;28;20371;-79
2022/06/01 13:09:58;;;;;;;2.87;2.30;;;;;;;;;;10478399;28;20049;-77
2022/06/01 13:15:18;;;;;;;2.60;2.10;;;;;;;;;;10461207;28;20120;-74
2022/06/01 13:20:23;;;;;;;1.63;1.52;;;;;;;;;;10464029;28;20158;-74
2022/06/01 13:25:26;;;;;;;3.42;2.05;;;;;;;;;;10457822;28;20372;-73
2022/06/01 13:30:27;;;;;;;3.70;3.08;;;;;;;;;;10470958;28;20468;-73
2022/06/01 13:35:28;;;;;;;3.77;1.90;;;;;;;;;;10463975;28;20131;-72
2022/06/01 13:40:30;;;;;;;5.07;3.90;;;;;;;;;;10472729;28;20104;-75
2022/06/01 13:45:36;;;;;;;3.72;2.28;;;;;;;;;;10477980;28;20067;-77
2022/06/01 13:50:41;;;;;;;2.40;1.70;;;;;;;;;;10472664;28;20786;-76
2022/06/01 13:56:03;;;;;;;2.80;1.98;;;;;;;;;;10465990;28;20047;-77
2022/06/01 14:01:06;;;;;;;2.45;1.80;;;;;;;;;;10454786;28;20036;-77
2022/06/01 14:06:08;;;;;;;1.90;1.75;;;;;;;;;;10466342;28;20086;-78
2022/06/01 14:11:12;;;;;;;1.98;1.70;;;;;;;;;;10472316;28;20245;-77
2022/06/01 14:16:14;;;;;;;4.53;3.50;;;;;;;;;;10478262;28;20143;-77
2022/06/01 14:21:14;;;;;;;3.17;2.38;;;;;;;;;;10452203;28;20498;-74
2022/06/01 14:31:35;;;;;;;3.83;2.60;;;;;;;;;;10466016;28;20139;-75
2022/06/01 14:36:35;;;;;;;3.63;2.35;;;;;;;;;;10464876;28;20040;-73
2022/06/01 14:41:40;;;;;;;3.30;1.65;;;;;;;;;;10455741;28;20124;-71
2022/06/01 14:46:41;;;;;;;2.88;1.55;;;;;;;;;;10480643;28;20105;-74
2022/06/01 14:51:42;;;;;;;3.43;3.13;;;;;;;;;;10474514;28;20132;-74
2022/06/01 14:56:43;;;;;;;6.72;6.03;;;;;;;;;;10444983;28;20279;-76
2022/06/01 15:01:48;;;;;;;2.47;2.00;;;;;;;;;;10448329;28;20045;-74
2022/06/01 15:06:48;;;;;;;2.90;1.90;;;;;;;;;;10459288;28;20287;-78
2022/06/01 15:11:48;;;;;;;2.57;1.50;;;;;;;;;;10456480;28;20037;-75
2022/06/01 15:16:56;;;;;;;3.00;1.58;;;;;;;;;;10476841;28;20131;-76
2022/06/01 15:21:57;;;;;;;2.55;1.63;;;;;;;;;;10467194;28;20090;-75
2022/06/01 15:26:57;;;;;;;1.92;1.60;;;;;;;;;;10469694;28;20118;-75
2022/06/01 15:42:36;;;;;;;1.92;1.50;;;;;;;;;;10465225;28;20162;-75
2022/06/01 15:47:36;;;;;;;2.33;1.70;;;;;;;;;;10457767;28;20491;-72
2022/06/01 15:52:37;;;;;;;2.55;1.98;;;;;;;;;;10462026;28;20279;-73
2022/06/01 15:57:37;;;;;;;2.30;2.10;;;;;;;;;;10438780;28;20126;-74
2022/06/01 16:02:38;;;;;;;6.87;4.10;;;;;;;;;;10459462;28;20338;-76
2022/06/01 16:07:38;;;;;;;4.43;2.72;;;;;;;;;;10483176;28;20094;-78
2022/06/01 16:12:38;;;;;;;6.33;3.80;;;;;;;;;;10473170;28;20092;-76
2022/06/01 16:17:40;;;;;;;5.88;2.88;;;;;;;;;;10431227;28;20284;-77
2022/06/01 16:22:41;;;;;;;2.55;1.77;;;;;;;;;;10429807;28;20076;-76
2022/06/01 16:27:41;;;;;;;2.93;2.63;;;;;;;;;;10480007;28;20139;-76
2022/06/01 16:32:43;;;;;;;2.33;1.80;;;;;;;;;;10471951;28;20271;-78
2022/06/01 16:37:44;;;;;;;4.55;2.22;;;;;;;;;;10476854;28;20616;-78
2022/06/01 16:42:46;;;;;;;3.50;2.63;;;;;;;;;;10464123;28;20037;-78
2022/06/01 16:47:46;;;;;;;2.47;2.00;;;;;;;;;;10450613;28;20480;-76
2022/06/01 16:52:47;;;;;;;6.10;3.50;;;;;;;;;;10476872;28;20136;-78
2022/06/01 16:57:48;;;;;;;5.07;2.83;;;;;;;;;;10470517;28;20118;-79
2022/06/01 17:02:48;;;;;;;5.40;2.65;;;;;;;;;;10456114;28;20041;-76
2022/06/01 17:07:49;;;;;;;3.90;2.95;;;;;;;;;;10472955;28;20055;-78
2022/06/01 17:12:49;;;;;;;1.75;1.40;;;;;;;;;;10461700;28;20036;-77
2022/06/01 17:17:52;;;;;;;9.03;6.27;;;;;;;;;;10468066;28;20045;-77
2022/06/01 17:22:53;;;;;;;5.72;3.33;;;;;;;;;;10468312;28;20282;-78
2022/06/01 17:27:54;;;;;;;4.03;1.95;;;;;;;;;;10481167;28;20060;-76
2022/06/01 17:32:54;;;;;;;3.03;2.35;;;;;;;;;;10470082;28;20089;-78
2022/06/01 17:37:55;;;;;;;5.40;4.60;;;;;;;;;;10453714;28;20601;-76
2022/06/01 17:42:56;;;;;;;6.88;4.30;;;;;;;;;;10492858;28;20032;-79
2022/06/01 17:47:59;;;;;;;2.92;1.73;;;;;;;;;;10483076;28;20048;-78
2022/06/01 17:53:01;;;;;;;2.75;1.60;;;;;;;;;;10447224;28;20070;-76
2022/06/01 17:58:06;;;;;;;1.50;1.30;;;;;;;;;;10464607;28;20060;-75
2022/06/01 18:03:06;;;;;;;2.38;1.70;;;;;;;;;;10456196;28;20037;-76
2022/06/01 18:08:09;;;;;;;2.70;1.35;;;;;;;;;;10468962;28;20045;-77
2022/06/01 18:13:11;;;;;;;3.58;1.73;;;;;;;;;;10468117;28;20049;-81
2022/06/01 18:18:12;;;;;;;2.07;1.73;;;;;;;;;;10470126;28;20053;-80
2022/06/01 18:23:14;;;;;;;2.75;2.10;;;;;;;;;;10466425;28;20114;-80
2022/06/01 18:28:19;;;;;;;2.37;1.40;;;;;;;;;;10439308;28;20068;-79
2022/06/01 18:33:20;;;;;;;1.30;1.20;;;;;;;;;;10446319;28;20067;-79
2022/06/01 18:38:20;;;;;;;2.97;1.40;;;;;;;;;;10471185;28;20078;-82
2022/06/01 18:48:51;;;;;;;2.70;2.47;;;;;;;;;;10837644;23;20046;-79
2022/06/01 18:53:52;;;;;;;2.22;1.70;;;;;;;;;;10394447;28;20107;-79
2022/06/01 18:58:53;;;;;;;2.42;1.52;;;;;;;;;;10421289;28;20108;-79
2022/06/01 19:03:53;;;;;;;1.63;1.45;;;;;;;;;;10411848;28;20100;-80
2022/06/01 19:08:53;;;;;;;3.17;2.47;;;;;;;;;;10377287;28;20053;-79
2022/06/01 19:13:54;;;;;;;4.43;3.43;;;;;;;;;;10372010;28;20064;-78
2022/06/01 19:18:55;;;;;;;3.88;2.67;;;;;;;;;;10379675;28;20092;-77
2022/06/01 19:23:56;;;;;;;2.72;2.20;;;;;;;;;;10397354;28;20122;-79
2022/06/01 19:28:57;;;;;;;7.90;4.75;;;;;;;;;;10358946;28;20143;-78
2022/06/01 19:33:58;;;;;;;2.63;1.83;;;;;;;;;;10376995;28;20046;-79
2022/06/01 19:44:20;;;;;;;3.60;1.83;;;;;;;;;;10380997;28;20132;-78
2022/06/01 19:49:22;;;;;;;3.28;1.90;;;;;;;;;;10364655;28;20053;-80
2022/06/01 19:54:23;;;;;;;3.42;2.35;;;;;;;;;;10382934;28;20061;-79
2022/06/01 19:59:25;;;;;;;3.03;2.40;;;;;;;;;;10375054;28;20049;-77
2022/06/01 20:04:26;;;;;;;2.60;2.30;;;;;;;;;;10377613;28;20126;-78
2022/06/01 20:09:26;;;;;;;3.00;2.50;;;;;;;;;;10395611;28;20117;-79
2022/06/01 20:14:26;;;;;;;4.83;3.07;;;;;;;;;;10407624;28;20037;-78
2022/06/01 20:19:27;;;;;;;3.92;3.10;;;;;;;;;;10384099;28;20077;-79
2022/06/01 20:24:27;;;;;;;3.47;2.78;;;;;;;;;;10386381;28;20189;-77
2022/06/01 20:29:28;;;;;;;4.03;2.80;;;;;;;;;;10372184;28;20102;-78
2022/06/01 20:34:28;;;;;;;3.78;2.60;;;;;;;;;;10385472;28;20284;-78
2022/06/01 20:39:30;;;;;;;3.60;2.67;;;;;;;;;;10379517;28;20100;-79
2022/06/01 20:44:31;;;;;;;3.22;2.60;;;;;;;;;;10378645;28;20050;-78
2022/06/01 20:49:32;;;;;;;3.43;2.80;;;;;;;;;;10377281;28;20053;-79
2022/06/01 20:54:33;;;;;;;3.72;2.35;;;;;;;;;;10386182;28;20173;-79
2022/06/01 20:59:36;;;;;;;3.27;2.13;;;;;;;;;;10396172;28;20080;-78
2022/06/01 21:04:37;;;;;;;2.40;2.17;;;;;;;;;;10390956;28;20058;-77
2022/06/01 21:09:38;;;;;;;2.45;2.20;;;;;;;;;;10372624;28;20056;-78
2022/06/01 21:14:38;;;;;;;2.90;2.28;;;;;;;;;;10386966;28;20107;-78
2022/06/01 21:19:39;;;;;;;2.33;2.10;;;;;;;;;;10333153;28;20042;-79
2022/06/01 21:25:06;;;;;;;4.28;2.30;;;;;;;;;;10356815;28;20293;-80
2022/06/01 21:30:19;;;;;;;2.28;2.05;;;;;;;;;;10356437;28;20049;-78
2022/06/01 21:36:14;;;;;;;2.70;1.90;;;;;;;;;;10386730;28;20141;-80
2022/06/01 21:41:14;;;;;;;2.30;2.00;;;;;;;;;;10382864;28;20160;-80
2022/06/01 21:46:15;;;;;;;2.10;1.90;;;;;;;;;;10323863;28;20137;-80
2022/06/01 21:51:17;;;;;;;2.85;2.40;;;;;;;;;;10374372;28;20276;-81
2022/06/01 21:56:17;;;;;;;2.17;2.03;;;;;;;;;;10379047;28;20722;-80
2022/06/01 22:01:18;;;;;;;4.43;2.37;;;;;;;;;;10394939;28;20076;-78
2022/06/01 22:06:18;;;;;;;2.60;1.92;;;;;;;;;;10379703;28;20053;-79
2022/06/01 22:16:39;;;;;;;4.35;2.60;;;;;;;;;;10396174;28;20492;-79
2022/06/01 22:21:42;;;;;;;3.33;2.60;;;;;;;;;;10378136;28;20140;-80
2022/06/01 22:26:44;;;;;;;3.47;3.17;;;;;;;;;;10397679;28;20053;-79
2022/06/01 22:31:47;;;;;;;4.68;2.90;;;;;;;;;;10408933;28;20033;-80
2022/06/01 22:42:08;;;;;;;3.35;2.70;;;;;;;;;;10424707;28;19913;-79
2022/06/01 22:47:19;;;;;;;3.35;3.05;;;;;;;;;;10356054;28;20056;-78
2022/06/01 22:52:23;;;;;;;3.65;2.90;;;;;;;;;;10391630;28;20056;-79
2022/06/01 22:57:23;;;;;;;3.78;2.42;;;;;;;;;;10384259;28;20124;-79
2022/06/01 23:02:23;;;;;;;4.70;2.37;;;;;;;;;;10384767;28;20041;-79
2022/06/01 23:07:24;;;;;;;5.30;3.73;;;;;;;;;;10369220;28;20283;-80
2022/06/01 23:12:24;;;;;;;3.45;2.40;;;;;;;;;;10362242;28;20273;-79
2022/06/01 23:17:24;;;;;;;2.55;1.98;;;;;;;;;;10357038;28;20102;-79
2022/06/01 23:22:25;;;;;;;1.73;1.63;;;;;;;;;;10369121;28;20149;-78
2022/06/01 23:27:27;;;;;;;2.08;1.70;;;;;;;;;;10380938;28;20387;-79
2022/06/01 23:32:37;;;;;;;3.57;1.80;;;;;;;;;;10384317;28;20042;-79
2022/06/01 23:37:54;;;;;;;2.35;1.70;;;;;;;;;;10395970;28;20057;-81
2022/06/01 23:43:24;;;;;;;2.10;1.90;;;;;;;;;;10382716;28;20121;-80
2022/06/01 23:49:06;;;;;;;1.70;1.60;;;;;;;;;;10181447;29;20095;-80
2022/06/01 23:54:09;;;;;;;2.55;1.85;;;;;;;;;;10395593;28;20073;-80
2022/06/01 23:59:19;;;;;;;3.33;1.88;;;;;;;;;;10378462;28;20140;-78
